createdAt,value
2023-03-01T00:01:52.339Z,69.63
2023-03-01T00:04:21.192Z,70.87
2023-03-01T00:06:49.774Z,70.60
2023-03-01T00:09:18.984Z,64.33
2023-03-01T00:11:48.078Z,62.60
2023-03-01T00:14:18.733Z,65.47
2023-03-01T00:16:48.637Z,66.10
2023-03-01T00:19:19.083Z,67.27
2023-03-01T00:21:48.353Z,71.77
2023-03-01T00:24:17.972Z,71.97
2023-03-01T00:26:47.762Z,66.47
2023-03-01T00:29:18.004Z,59.87
2023-03-01T00:31:46.636Z,57.40
2023-03-01T00:34:15.343Z,51.97
2023-03-01T00:36:43.937Z,52.83
2023-03-01T00:39:16.007Z,52.57
2023-03-01T00:41:45.566Z,50.83
2023-03-01T00:44:14.425Z,50.97
2023-03-01T00:46:44.541Z,48.33
2023-03-01T00:49:13.384Z,49.00
2023-03-01T00:51:42.877Z,53.75
2023-03-01T00:54:11.778Z,71.53
2023-03-01T00:56:40.402Z,62.17
2023-03-01T00:59:08.933Z,60.67
2023-03-01T01:01:37.638Z,55.37
2023-03-01T01:04:10.075Z,51.97
2023-03-01T01:06:40.568Z,44.80
2023-03-01T01:09:10.707Z,46.17
2023-03-01T01:11:39.319Z,42.03
2023-03-01T01:14:07.899Z,41.07
2023-03-01T01:16:36.722Z,39.17
2023-03-01T01:19:07.265Z,39.03
2023-03-01T01:21:35.960Z,39.27
2023-03-01T01:24:06.761Z,40.73
2023-03-01T01:26:36.387Z,40.70
2023-03-01T01:29:06.594Z,40.87
2023-03-01T01:31:36.148Z,40.30
2023-03-01T01:34:08.080Z,39.63
2023-03-01T01:36:37.193Z,39.67
2023-03-01T01:39:05.816Z,40.63
2023-03-01T01:41:34.540Z,39.77
2023-03-01T01:44:18.479Z,41.20
2023-03-01T01:46:51.468Z,40.80
2023-03-01T01:49:31.222Z,40.73
2023-03-01T01:52:07.291Z,40.33
2023-03-01T01:54:42.984Z,42.53
2023-03-01T01:57:15.889Z,41.20
2023-03-01T01:59:48.345Z,42.97
2023-03-01T02:02:17.302Z,42.50
2023-03-01T02:04:48.084Z,39.90
2023-03-01T02:07:19.174Z,44.63
2023-03-01T02:09:50.941Z,44.77
2023-03-01T02:12:21.743Z,45.83
2023-03-01T02:14:50.366Z,45.80
2023-03-01T02:17:20.744Z,49.70
2023-03-01T02:20:01.723Z,49.50
2023-03-01T02:22:33.693Z,61.87
2023-03-01T02:25:15.484Z,60.73
2023-03-01T02:27:55.708Z,57.37
2023-03-01T02:30:27.344Z,57.67
2023-03-01T02:33:04.124Z,57.97
2023-03-01T02:35:36.002Z,53.47
2023-03-01T02:38:06.252Z,53.70
2023-03-01T02:40:37.143Z,55.13
2023-03-01T02:43:09.336Z,52.83
2023-03-01T02:45:39.389Z,48.93
2023-03-01T02:48:08.236Z,51.50
2023-03-01T02:50:55.591Z,57.13
2023-03-01T02:53:30.398Z,52.63
2023-03-01T02:56:00.320Z,51.77
2023-03-01T02:58:29.012Z,48.50
2023-03-01T03:01:02.176Z,47.67
2023-03-01T03:03:30.905Z,42.80
2023-03-01T03:05:59.868Z,42.27
2023-03-01T03:08:28.576Z,41.07
2023-03-01T03:10:57.296Z,40.57
2023-03-01T03:13:29.582Z,39.97
2023-03-01T03:15:59.992Z,39.57
2023-03-01T03:18:28.741Z,41.00
2023-03-01T03:20:57.435Z,39.67
2023-03-01T03:23:26.432Z,38.23
2023-03-01T03:25:55.038Z,37.10
2023-03-01T03:28:23.651Z,37.93
2023-03-01T03:30:52.269Z,37.17
2023-03-01T03:33:22.294Z,37.63
2023-03-01T03:35:52.677Z,37.43
2023-03-01T03:38:23.247Z,38.13
2023-03-01T03:40:53.819Z,37.50
2023-03-01T03:43:24.056Z,36.90
2023-03-01T03:45:55.158Z,38.80
2023-03-01T03:48:26.768Z,38.33
2023-03-01T03:50:57.383Z,38.23
2023-03-01T03:53:28.163Z,40.13
2023-03-01T03:55:57.371Z,42.47
2023-03-01T03:58:27.098Z,39.43
2023-03-01T04:00:58.007Z,42.93
2023-03-01T04:03:29.906Z,39.63
2023-03-01T04:06:00.482Z,41.53
2023-03-01T04:08:29.453Z,41.57
2023-03-01T04:11:22.180Z,42.17
2023-03-01T04:13:50.856Z,39.30
2023-03-01T04:16:20.106Z,41.43
2023-03-01T04:18:50.173Z,40.47
2023-03-01T04:21:18.739Z,39.63
2023-03-01T04:23:47.232Z,38.60
2023-03-01T04:26:15.833Z,42.60
2023-03-01T04:28:47.286Z,42.20
2023-03-01T04:31:19.327Z,41.87
2023-03-01T04:33:52.537Z,42.17
2023-03-01T04:36:23.892Z,41.00
2023-03-01T04:38:53.130Z,39.07
2023-03-01T04:41:23.079Z,40.40
2023-03-01T04:43:51.905Z,39.97
2023-03-01T04:46:22.169Z,39.63
2023-03-01T04:48:52.493Z,40.33
2023-03-01T04:51:21.120Z,39.80
2023-03-01T04:53:49.928Z,39.20
2023-03-01T04:56:19.883Z,38.27
2023-03-01T04:58:48.927Z,37.43
2023-03-01T05:01:19.420Z,41.95
2023-03-01T05:03:49.815Z,47.53
2023-03-01T05:06:21.245Z,43.67
2023-03-01T05:08:50.059Z,42.63
2023-03-01T05:11:18.761Z,41.00
2023-03-01T05:13:47.525Z,42.33
2023-03-01T05:16:16.232Z,43.73
2023-03-01T05:18:45.436Z,40.50
2023-03-01T05:21:17.380Z,41.60
2023-03-01T05:23:48.023Z,48.20
2023-03-01T05:26:33.895Z,50.80
2023-03-01T05:29:05.366Z,47.60
2023-03-01T05:31:33.996Z,46.83
2023-03-01T05:34:03.423Z,49.33
2023-03-01T05:36:32.383Z,46.15
2023-03-01T05:39:02.692Z,54.53
2023-03-01T05:41:31.370Z,54.70
2023-03-01T05:44:00.126Z,51.07
2023-03-01T05:46:29.859Z,50.33
2023-03-01T05:48:58.960Z,50.97
2023-03-01T05:51:27.600Z,50.70
2023-03-01T05:53:56.357Z,51.93
2023-03-01T05:56:26.305Z,51.97
2023-03-01T05:58:54.832Z,51.77
2023-03-01T06:01:23.373Z,49.60
2023-03-01T06:03:52.018Z,53.40
2023-03-01T06:06:20.671Z,48.73
2023-03-01T06:08:49.240Z,50.47
2023-03-01T06:11:18.023Z,47.67
2023-03-01T06:13:48.725Z,46.30
2023-03-01T06:16:17.572Z,46.50
2023-03-01T06:18:46.276Z,44.40
2023-03-01T06:21:14.943Z,45.77
2023-03-01T06:23:43.819Z,49.00
2023-03-01T06:26:12.720Z,49.80
2023-03-01T06:28:41.520Z,49.50
2023-03-01T06:31:11.732Z,47.13
2023-03-01T06:33:40.314Z,48.47
2023-03-01T06:36:11.167Z,46.57
2023-03-01T06:38:41.906Z,45.20
2023-03-01T06:41:10.475Z,45.13
2023-03-01T06:43:39.078Z,42.13
2023-03-01T06:46:08.588Z,43.73
2023-03-01T06:48:38.886Z,44.00
2023-03-01T06:51:07.660Z,46.13
2023-03-01T06:53:36.519Z,43.60
2023-03-01T06:56:05.315Z,43.87
2023-03-01T06:58:33.837Z,44.93
2023-03-01T07:01:06.375Z,41.70
2023-03-01T07:03:35.398Z,42.73
2023-03-01T07:06:05.697Z,40.97
2023-03-01T07:08:34.381Z,43.17
2023-03-01T07:11:03.590Z,43.00
2023-03-01T07:13:32.244Z,46.93
2023-03-01T07:16:00.920Z,47.73
2023-03-01T07:18:29.616Z,46.67
2023-03-01T07:20:58.200Z,48.43
2023-03-01T07:23:28.205Z,47.87
2023-03-01T07:25:57.362Z,56.50
2023-03-01T07:28:26.666Z,64.23
2023-03-01T07:30:55.690Z,50.00
2023-03-01T07:33:24.319Z,60.90
2023-03-01T07:35:59.238Z,63.73
2023-03-01T07:38:29.934Z,48.90
2023-03-01T07:41:01.531Z,51.97
2023-03-01T07:43:30.453Z,46.50
2023-03-01T07:46:01.640Z,47.90
2023-03-01T07:48:30.935Z,45.50
2023-03-01T07:51:01.042Z,44.00
2023-03-01T07:53:32.113Z,40.27
2023-03-01T07:56:04.561Z,41.73
2023-03-01T07:58:33.222Z,51.10
2023-03-01T08:01:04.096Z,47.33
2023-03-01T08:03:32.789Z,43.43
2023-03-01T08:06:02.990Z,46.10
2023-03-01T08:08:33.635Z,63.57
2023-03-01T08:11:03.139Z,62.17
2023-03-01T08:13:32.478Z,59.17
2023-03-01T08:16:04.486Z,67.17
2023-03-01T08:18:33.304Z,65.43
2023-03-01T08:21:07.892Z,79.27
2023-03-01T08:23:37.975Z,83.53
2023-03-01T08:26:08.799Z,83.00
2023-03-01T08:28:37.362Z,77.97
2023-03-01T08:31:15.272Z,99.10
2023-03-01T08:33:44.157Z,83.20
2023-03-01T08:36:12.853Z,83.07
2023-03-01T08:38:42.837Z,92.87
2023-03-01T08:41:11.402Z,91.83
2023-03-01T08:43:40.012Z,79.53
2023-03-01T08:46:08.758Z,77.73
2023-03-01T08:48:37.327Z,107.53
2023-03-01T08:51:13.903Z,83.40
2023-03-01T08:53:44.239Z,95.13
2023-03-01T08:56:13.095Z,81.20
2023-03-01T08:58:41.849Z,92.10
2023-03-01T09:01:11.598Z,95.80
2023-03-01T09:03:40.345Z,95.80
2023-03-01T09:06:10.311Z,101.77
2023-03-01T09:08:40.172Z,84.80
2023-03-01T09:11:13.309Z,100.37
2023-03-01T09:13:44.248Z,96.40
2023-03-01T09:16:14.646Z,104.03
2023-03-01T09:18:43.346Z,90.37
2023-03-01T09:21:14.356Z,96.50
2023-03-01T09:23:45.180Z,104.90
2023-03-01T09:26:20.371Z,85.70
2023-03-01T09:28:49.602Z,103.20
2023-03-01T09:31:20.413Z,86.13
2023-03-01T09:33:52.019Z,109.87
2023-03-01T09:36:22.722Z,92.40
2023-03-01T09:38:51.458Z,93.37
2023-03-01T09:41:48.426Z,105.00
2023-03-01T09:44:28.486Z,84.90
2023-03-01T09:46:58.364Z,89.60
2023-03-01T09:49:29.803Z,85.90
2023-03-01T09:52:09.043Z,73.33
2023-03-01T09:54:41.501Z,81.73
2023-03-01T09:57:23.454Z,94.10
2023-03-01T10:00:15.516Z,78.93
2023-03-01T10:02:52.199Z,77.23
2023-03-01T10:05:49.592Z,88.03
2023-03-01T10:08:37.499Z,95.83
2023-03-01T10:11:21.674Z,82.47
2023-03-01T10:13:59.572Z,77.93
2023-03-01T10:16:40.372Z,92.90
2023-03-01T10:19:16.574Z,71.03
2023-03-01T10:21:48.148Z,70.17
2023-03-01T10:24:22.855Z,76.10
2023-03-01T10:26:57.524Z,52.20
2023-03-01T10:29:32.236Z,44.80
2023-03-01T10:32:01.053Z,33.83
2023-03-01T10:34:32.226Z,30.90
2023-03-01T10:37:11.005Z,32.80
2023-03-01T10:39:39.675Z,29.57
2023-03-01T10:42:23.480Z,27.90
2023-03-01T10:44:53.968Z,26.30
2023-03-01T10:47:25.882Z,21.80
2023-03-01T10:49:56.926Z,25.30
2023-03-01T10:52:28.503Z,21.43
2023-03-01T10:54:59.487Z,20.70
2023-03-01T10:57:39.997Z,28.07
2023-03-01T11:00:27.362Z,24.23
2023-03-01T11:03:14.542Z,27.17
2023-03-01T11:06:01.747Z,20.67
2023-03-01T11:08:37.112Z,30.20
2023-03-01T11:11:32.682Z,27.03
2023-03-01T11:14:19.373Z,22.97
2023-03-01T11:17:04.304Z,26.77
2023-03-01T11:19:33.371Z,21.07
2023-03-01T11:22:05.940Z,21.93
2023-03-01T11:24:45.618Z,20.43
2023-03-01T11:27:31.884Z,23.83
2023-03-01T11:30:06.286Z,24.67
2023-03-01T11:32:42.709Z,21.97
2023-03-01T11:35:20.114Z,19.23
2023-03-01T11:38:05.802Z,22.27
2023-03-01T11:40:38.138Z,21.20
2023-03-01T11:43:14.244Z,20.33
2023-03-01T11:45:55.113Z,21.93
2023-03-01T11:48:49.451Z,22.30
2023-03-01T11:51:26.246Z,23.53
2023-03-01T11:54:07.507Z,52.00
2023-03-01T11:56:40.833Z,23.57
2023-03-01T11:59:40.197Z,21.93
2023-03-01T12:02:35.035Z,24.90
2023-03-01T12:05:25.367Z,21.93
2023-03-01T12:07:58.789Z,19.60
2023-03-01T12:10:29.930Z,22.17
2023-03-01T12:13:20.527Z,19.43
2023-03-01T12:16:06.638Z,20.90
2023-03-01T12:19:00.265Z,25.13
2023-03-01T12:21:47.067Z,21.23
2023-03-01T12:24:50.681Z,17.80
2023-03-01T12:27:47.780Z,23.47
2023-03-01T12:30:29.468Z,29.63
2023-03-01T12:33:13.519Z,28.93
2023-03-01T12:36:02.218Z,24.30
2023-03-01T12:38:42.860Z,22.90
2023-03-01T12:41:36.754Z,20.87
2023-03-01T12:44:17.168Z,21.03
2023-03-01T12:47:09.477Z,23.07
2023-03-01T12:49:43.689Z,22.23
2023-03-01T12:52:17.440Z,21.27
2023-03-01T12:54:48.622Z,22.33
2023-03-01T12:57:22.731Z,24.33
2023-03-01T13:00:10.862Z,20.13
2023-03-01T13:02:47.400Z,19.43
2023-03-01T13:05:29.469Z,21.30
2023-03-01T13:08:07.354Z,22.43
2023-03-01T13:10:46.749Z,19.90
2023-03-01T13:13:21.829Z,21.77
2023-03-01T13:15:52.489Z,20.17
2023-03-01T13:18:35.401Z,26.23
2023-03-01T13:21:07.254Z,19.47
2023-03-01T13:23:38.636Z,19.87
2023-03-01T13:26:20.255Z,23.03
2023-03-01T13:28:51.731Z,19.67
2023-03-01T13:32:04.967Z,26.98
2023-03-01T13:34:58.577Z,18.73
2023-03-01T13:37:35.957Z,22.60
2023-03-01T13:40:25.300Z,22.93
2023-03-01T13:43:05.427Z,22.47
2023-03-01T13:45:42.485Z,23.10
2023-03-01T13:48:19.723Z,24.30
2023-03-01T13:50:53.312Z,25.40
2023-03-01T13:53:24.913Z,25.57
2023-03-01T13:55:59.604Z,23.97
2023-03-01T13:58:32.227Z,23.93
2023-03-01T14:01:02.546Z,22.97
2023-03-01T14:03:33.105Z,23.07
2023-03-01T14:06:17.719Z,23.37
2023-03-01T14:08:49.827Z,22.90
2023-03-01T14:11:55.237Z,25.27
2023-03-01T14:14:49.116Z,25.23
2023-03-01T14:17:52.047Z,24.83
2023-03-01T14:20:23.562Z,27.00
2023-03-01T14:22:55.022Z,26.13
2023-03-01T14:25:27.002Z,22.57
2023-03-01T14:28:06.244Z,25.67
2023-03-01T14:30:39.904Z,24.45
2023-03-01T14:33:21.005Z,25.30
2023-03-01T14:35:57.793Z,23.37
2023-03-01T14:38:33.082Z,24.70
2023-03-01T14:41:06.601Z,24.40
2023-03-01T14:43:36.174Z,26.93
2023-03-01T14:46:06.466Z,25.63
2023-03-01T14:48:35.468Z,25.93
2023-03-01T14:51:07.056Z,25.70
2023-03-01T14:53:45.835Z,23.70
2023-03-01T14:56:20.688Z,23.80
2023-03-01T14:58:53.221Z,27.13
2023-03-01T15:01:24.444Z,28.70
2023-03-01T15:03:54.028Z,26.00
2023-03-01T15:06:24.693Z,28.43
2023-03-01T15:08:55.741Z,26.40
2023-03-01T15:11:26.346Z,26.47
2023-03-01T15:13:55.598Z,23.80
2023-03-01T15:16:27.412Z,25.07
2023-03-01T15:18:58.476Z,24.63
2023-03-01T15:21:30.202Z,29.03
2023-03-01T15:24:04.854Z,31.73
2023-03-01T15:26:37.692Z,33.63
2023-03-01T15:29:06.675Z,29.80
2023-03-01T15:31:40.099Z,31.43
2023-03-01T15:34:24.590Z,29.70
2023-03-01T15:36:54.320Z,28.83
2023-03-01T15:39:39.546Z,30.70
2023-03-01T15:42:13.080Z,32.57
2023-03-01T15:44:46.270Z,31.83
2023-03-01T15:47:34.307Z,32.17
2023-03-01T15:50:03.611Z,34.30
2023-03-01T15:52:40.661Z,31.83
2023-03-01T15:55:19.218Z,34.43
2023-03-01T15:57:48.053Z,33.50
2023-03-01T16:00:20.200Z,36.83
2023-03-01T16:02:50.345Z,35.97
2023-03-01T16:05:24.398Z,55.88
2023-03-01T16:07:53.667Z,32.83
2023-03-01T16:10:25.638Z,32.80
2023-03-01T16:12:54.706Z,35.93
2023-03-01T16:15:25.671Z,35.57
2023-03-01T16:18:00.499Z,38.17
2023-03-01T16:20:33.508Z,34.87
2023-03-01T16:23:03.363Z,38.37
2023-03-01T16:25:33.453Z,39.83
2023-03-01T16:28:06.122Z,43.47
2023-03-01T16:30:37.069Z,51.78
2023-03-01T16:33:28.803Z,60.60
2023-03-01T16:36:01.652Z,77.10
2023-03-01T16:38:31.103Z,92.17
2023-03-01T16:40:59.907Z,78.13
2023-03-01T16:43:28.970Z,92.87
2023-03-01T16:45:57.880Z,99.23
2023-03-01T16:48:28.055Z,104.07
2023-03-01T16:51:01.515Z,99.90
2023-03-01T16:53:30.791Z,106.27
2023-03-01T16:56:00.640Z,100.67
2023-03-01T16:58:29.416Z,157.80
2023-03-01T17:00:58.870Z,165.43
2023-03-01T17:03:30.023Z,159.87
2023-03-01T17:05:59.013Z,175.23
2023-03-01T17:08:27.661Z,172.77
2023-03-01T17:10:56.362Z,155.47
2023-03-01T17:13:26.590Z,148.53
2023-03-01T17:15:55.182Z,130.53
2023-03-01T17:18:24.302Z,118.07
2023-03-01T17:20:54.513Z,115.00
2023-03-01T17:23:23.492Z,107.03
2023-03-01T17:25:52.497Z,114.63
2023-03-01T17:28:21.282Z,115.77
2023-03-01T17:30:50.601Z,105.93
2023-03-01T17:33:19.575Z,105.53
2023-03-01T17:35:48.427Z,120.00
2023-03-01T17:38:19.463Z,117.43
2023-03-01T17:40:48.246Z,118.67
2023-03-01T17:43:18.679Z,116.63
2023-03-01T17:45:50.976Z,118.07
2023-03-01T17:48:20.234Z,113.63
2023-03-01T17:50:49.429Z,121.10
2023-03-01T17:53:19.505Z,111.27
2023-03-01T17:55:50.347Z,104.37
2023-03-01T17:58:23.061Z,91.93
2023-03-01T18:00:51.959Z,85.27
2023-03-01T18:03:21.832Z,97.60
2023-03-01T18:05:50.888Z,88.53
2023-03-01T18:08:20.860Z,89.83
2023-03-01T18:10:49.502Z,94.20
2023-03-01T18:13:18.300Z,78.93
2023-03-01T18:15:47.004Z,76.00
2023-03-01T18:18:15.607Z,67.00
2023-03-01T18:20:44.205Z,64.37
2023-03-01T18:23:13.018Z,67.93
2023-03-01T18:25:43.128Z,58.40
2023-03-01T18:28:12.258Z,57.60
2023-03-01T18:30:40.936Z,59.73
2023-03-01T18:33:12.034Z,60.47
2023-03-01T18:35:41.116Z,58.03
2023-03-01T18:38:09.762Z,54.77
2023-03-01T18:40:38.443Z,49.63
2023-03-01T18:43:08.582Z,49.00
2023-03-01T18:45:37.382Z,56.33
2023-03-01T18:48:06.232Z,53.33
2023-03-01T18:50:34.815Z,57.27
2023-03-01T18:53:03.406Z,64.33
2023-03-01T18:55:32.297Z,69.50
2023-03-01T18:58:00.940Z,74.57
2023-03-01T19:00:30.998Z,73.70
2023-03-01T19:03:01.415Z,80.13
2023-03-01T19:05:30.398Z,73.63
2023-03-01T19:07:59.177Z,74.87
2023-03-01T19:10:28.416Z,73.23
2023-03-01T19:12:57.338Z,79.37
2023-03-01T19:15:25.985Z,78.60
2023-03-01T19:17:57.531Z,82.90
2023-03-01T19:20:26.420Z,81.90
2023-03-01T19:22:55.046Z,83.40
2023-03-01T19:25:23.719Z,88.13
2023-03-01T19:27:52.350Z,90.47
2023-03-01T19:30:21.098Z,99.50
2023-03-01T19:32:49.736Z,103.87
2023-03-01T19:35:20.001Z,83.67
2023-03-01T19:37:48.705Z,79.90
2023-03-01T19:40:17.431Z,72.17
2023-03-01T19:42:45.968Z,70.17
2023-03-01T19:45:14.736Z,73.73
2023-03-01T19:48:03.201Z,71.23
2023-03-01T19:50:33.323Z,71.83
2023-03-01T19:53:01.945Z,76.07
2023-03-01T19:55:30.646Z,80.80
2023-03-01T19:57:59.296Z,79.37
2023-03-01T20:00:27.998Z,93.90
2023-03-01T20:02:56.789Z,85.77
2023-03-01T20:05:25.483Z,88.57
2023-03-01T20:07:59.081Z,85.40
2023-03-01T20:10:29.832Z,83.43
2023-03-01T20:12:58.710Z,86.37
2023-03-01T20:15:27.495Z,83.87
2023-03-01T20:17:56.352Z,83.90
2023-03-01T20:20:25.050Z,82.67
2023-03-01T20:22:53.951Z,82.07
2023-03-01T20:25:24.122Z,80.50
2023-03-01T20:27:55.074Z,77.17
2023-03-01T20:30:23.772Z,76.67
2023-03-01T20:32:52.368Z,77.27
2023-03-01T20:35:22.594Z,83.63
2023-03-01T20:37:53.423Z,82.67
2023-03-01T20:40:27.556Z,78.30
2023-03-01T20:42:56.443Z,79.60
2023-03-01T20:45:27.999Z,78.73
2023-03-01T20:47:56.842Z,81.17
2023-03-01T20:50:25.574Z,85.97
2023-03-01T20:52:54.196Z,87.10
2023-03-01T20:55:24.243Z,87.50
2023-03-01T20:57:53.003Z,85.47
2023-03-01T21:00:22.221Z,86.03
2023-03-01T21:02:50.922Z,84.77
2023-03-01T21:05:20.069Z,96.85
2023-03-01T21:07:48.669Z,84.07
2023-03-01T21:10:17.779Z,86.43
2023-03-01T21:12:47.920Z,82.93
2023-03-01T21:15:28.371Z,83.93
2023-03-01T21:17:57.732Z,83.20
2023-03-01T21:20:26.467Z,86.70
2023-03-01T21:22:55.358Z,81.70
2023-03-01T21:25:24.079Z,84.03
2023-03-01T21:27:54.118Z,78.50
2023-03-01T21:30:22.684Z,83.67
2023-03-01T21:32:51.519Z,79.03
2023-03-01T21:35:20.291Z,81.03
2023-03-01T21:37:48.995Z,84.07
2023-03-01T21:40:17.857Z,83.27
2023-03-01T21:42:49.143Z,83.73
2023-03-01T21:45:19.225Z,88.73
2023-03-01T21:47:47.918Z,85.57
2023-03-01T21:50:16.726Z,82.33
2023-03-01T21:52:45.243Z,83.73
2023-03-01T21:55:14.144Z,74.83
2023-03-01T21:57:44.527Z,78.83
2023-03-01T22:00:17.507Z,81.97
2023-03-01T22:02:47.825Z,76.77
2023-03-01T22:05:16.640Z,79.87
2023-03-01T22:07:45.265Z,81.17
2023-03-01T22:10:13.840Z,81.80
2023-03-01T22:12:42.395Z,74.63
2023-03-01T22:15:14.445Z,77.90
2023-03-01T22:17:43.120Z,77.77
2023-03-01T22:20:14.190Z,79.63
2023-03-01T22:22:43.035Z,94.50
2023-03-01T22:25:12.668Z,98.77
2023-03-01T22:27:41.472Z,97.67
2023-03-01T22:30:12.951Z,93.73
2023-03-01T22:32:42.921Z,90.20
2023-03-01T22:35:14.112Z,87.60
2023-03-01T22:37:42.846Z,83.30
2023-03-01T22:40:12.625Z,76.17
2023-03-01T22:42:41.224Z,86.10
2023-03-01T22:45:10.418Z,87.07
2023-03-01T22:47:38.989Z,86.10
2023-03-01T22:50:09.802Z,82.23
2023-03-01T22:52:40.591Z,79.77
2023-03-01T22:55:11.118Z,78.27
2023-03-01T22:57:39.806Z,69.37
2023-03-01T23:00:13.370Z,72.40
2023-03-01T23:02:42.236Z,70.37
2023-03-01T23:05:11.954Z,74.70
2023-03-01T23:07:41.870Z,73.13
2023-03-01T23:10:12.428Z,69.90
2023-03-01T23:12:41.114Z,70.17
2023-03-01T23:15:11.450Z,69.37
2023-03-01T23:17:40.280Z,64.10
2023-03-01T23:20:11.051Z,64.87
2023-03-01T23:22:39.881Z,67.07
2023-03-01T23:25:13.349Z,65.67
2023-03-01T23:27:42.032Z,65.90
2023-03-01T23:30:11.862Z,61.93
2023-03-01T23:32:40.840Z,60.37
2023-03-01T23:35:11.277Z,60.83
2023-03-01T23:37:40.295Z,60.47
2023-03-01T23:40:12.294Z,61.63
2023-03-01T23:42:40.938Z,58.83
2023-03-01T23:45:10.493Z,56.57
2023-03-01T23:47:39.830Z,57.83
2023-03-01T23:50:09.159Z,59.90
2023-03-01T23:52:41.891Z,58.87
2023-03-01T23:55:14.665Z,56.53
2023-03-01T23:57:43.469Z,56.17
